sensor_id;sensor_type;location;lat;lon;timestamp;pressure;altitude;pressure_sealevel;temperature;humidity
53868;BME280;41577;47.470;19.080;2024-01-10T00:00:08;101854.19;;;-3.37;58.76
53868;BME280;41577;47.470;19.080;2024-01-10T00:00:21;101859.41;;;-3.37;58.61
53868;BME280;41577;47.470;19.080;2024-01-10T00:00:33;101868.13;;;-3.38;58.75
53868;BME280;41577;47.470;19.080;2024-01-10T00:00:45;101856.84;;;-3.38;58.56
53868;BME280;41577;47.470;19.080;2024-01-10T00:00:57;101858.59;;;-3.39;59.32
53868;BME280;41577;47.470;19.080;2024-01-10T00:01:09;101856.00;;;-3.39;59.59
53868;BME280;41577;47.470;19.080;2024-01-10T00:01:22;101863.84;;;-3.39;58.78
53868;BME280;41577;47.470;19.080;2024-01-10T00:01:34;101857.75;;;-3.39;58.86
53868;BME280;41577;47.470;19.080;2024-01-10T00:01:47;101861.28;;;-3.40;58.80
53868;BME280;41577;47.470;19.080;2024-01-10T00:01:59;101858.66;;;-3.40;58.69
53868;BME280;41577;47.470;19.080;2024-01-10T00:02:11;101857.81;;;-3.41;59.37
53868;BME280;41577;47.470;19.080;2024-01-10T00:02:23;101854.34;;;-3.41;59.80
53868;BME280;41577;47.470;19.080;2024-01-10T00:02:36;101860.44;;;-3.41;59.29
53868;BME280;41577;47.470;19.080;2024-01-10T00:02:48;101861.28;;;-3.40;59.25
53868;BME280;41577;47.470;19.080;2024-01-10T00:03:00;101857.88;;;-3.42;59.65
53868;BME280;41577;47.470;19.080;2024-01-10T00:03:12;101859.63;;;-3.43;59.06
53868;BME280;41577;47.470;19.080;2024-01-10T00:03:26;101866.56;;;-3.42;59.67
53868;BME280;41577;47.470;19.080;2024-01-10T00:03:38;101864.81;;;-3.41;59.32
53868;BME280;41577;47.470;19.080;2024-01-10T00:03:53;101863.09;;;-3.42;59.63
53868;BME280;41577;47.470;19.080;2024-01-10T00:04:06;101856.19;;;-3.43;59.61
53868;BME280;41577;47.470;19.080;2024-01-10T00:04:18;101864.84;;;-3.43;58.99
53868;BME280;41577;47.470;19.080;2024-01-10T00:04:31;101862.31;;;-3.44;59.50
53868;BME280;41577;47.470;19.080;2024-01-10T00:04:43;101857.03;;;-3.43;60.02
53868;BME280;41577;47.470;19.080;2024-01-10T00:04:55;101858.78;;;-3.43;59.21
53868;BME280;41577;47.470;19.080;2024-01-10T00:05:07;101857.09;;;-3.44;59.31
53868;BME280;41577;47.470;19.080;2024-01-10T00:05:20;101856.22;;;-3.45;59.41
53868;BME280;41577;47.470;19.080;2024-01-10T00:05:32;101859.72;;;-3.44;59.31
53868;BME280;41577;47.470;19.080;2024-01-10T00:05:45;101860.59;;;-3.45;59.54
53868;BME280;41577;47.470;19.080;2024-01-10T00:05:57;101860.59;;;-3.45;59.59
53868;BME280;41577;47.470;19.080;2024-01-10T00:06:09;101862.38;;;-3.46;60.38
53868;BME280;41577;47.470;19.080;2024-01-10T00:06:22;101851.94;;;-3.46;60.34
53868;BME280;41577;47.470;19.080;2024-01-10T00:06:34;101857.16;;;-3.46;59.45
53868;BME280;41577;47.470;19.080;2024-01-10T00:06:47;101858.00;;;-3.45;59.39
53868;BME280;41577;47.470;19.080;2024-01-10T00:06:59;101858.00;;;-3.45;59.38
53868;BME280;41577;47.470;19.080;2024-01-10T00:07:11;101855.38;;;-3.45;59.93
53868;BME280;41577;47.470;19.080;2024-01-10T00:07:24;101859.75;;;-3.46;59.48
53868;BME280;41577;47.470;19.080;2024-01-10T00:07:36;101861.53;;;-3.46;60.29
53868;BME280;41577;47.470;19.080;2024-01-10T00:07:48;101858.91;;;-3.46;60.56
53868;BME280;41577;47.470;19.080;2024-01-10T00:08:00;101860.59;;;-3.45;60.54
53868;BME280;41577;47.470;19.080;2024-01-10T00:08:13;101857.16;;;-3.46;60.59
53868;BME280;41577;47.470;19.080;2024-01-10T00:08:25;101852.81;;;-3.47;60.19
53868;BME280;41577;47.470;19.080;2024-01-10T00:08:37;101857.16;;;-3.46;60.03
53868;BME280;41577;47.470;19.080;2024-01-10T00:08:49;101861.44;;;-3.45;60.56
53868;BME280;41577;47.470;19.080;2024-01-10T00:09:02;101858.00;;;-3.45;60.87
53868;BME280;41577;47.470;19.080;2024-01-10T00:09:14;101859.75;;;-3.46;60.62
53868;BME280;41577;47.470;19.080;2024-01-10T00:09:27;101859.72;;;-3.44;59.91
53868;BME280;41577;47.470;19.080;2024-01-10T00:09:39;101856.22;;;-3.45;60.75
53868;BME280;41577;47.470;19.080;2024-01-10T00:09:51;101857.09;;;-3.44;60.66
53868;BME280;41577;47.470;19.080;2024-01-10T00:10:04;101862.25;;;-3.43;60.00
53868;BME280;41577;47.470;19.080;2024-01-10T00:10:17;101858.78;;;-3.43;60.29
53868;BME280;41577;47.470;19.080;2024-01-10T00:10:29;101863.16;;;-3.44;60.80
53868;BME280;41577;47.470;19.080;2024-01-10T00:10:42;101859.72;;;-3.44;61.19
53868;BME280;41577;47.470;19.080;2024-01-10T00:10:56;101858.84;;;-3.45;61.07
53868;BME280;41577;47.470;19.080;2024-01-10T00:11:08;101859.72;;;-3.44;60.95
53868;BME280;41577;47.470;19.080;2024-01-10T00:11:20;101862.31;;;-3.44;61.21
53868;BME280;41577;47.470;19.080;2024-01-10T00:11:32;101860.56;;;-3.44;61.13
53868;BME280;41577;47.470;19.080;2024-01-10T00:11:46;101862.31;;;-3.44;61.56
53868;BME280;41577;47.470;19.080;2024-01-10T00:11:58;101858.84;;;-3.45;61.31
53868;BME280;41577;47.470;19.080;2024-01-10T00:12:10;101864.06;;;-3.45;60.45
53868;BME280;41577;47.470;19.080;2024-01-10T00:12:22;101864.06;;;-3.45;61.23
53868;BME280;41577;47.470;19.080;2024-01-10T00:12:34;101864.97;;;-3.46;60.65
53868;BME280;41577;47.470;19.080;2024-01-10T00:12:46;101865.81;;;-3.45;61.23
53868;BME280;41577;47.470;19.080;2024-01-10T00:12:58;101864.97;;;-3.46;61.03
53868;BME280;41577;47.470;19.080;2024-01-10T00:13:11;101861.44;;;-3.45;60.27
53868;BME280;41577;47.470;19.080;2024-01-10T00:13:22;101862.38;;;-3.46;61.16
53868;BME280;41577;47.470;19.080;2024-01-10T00:13:35;101864.16;;;-3.46;60.69
53868;BME280;41577;47.470;19.080;2024-01-10T00:13:47;101864.97;;;-3.46;60.16
53868;BME280;41577;47.470;19.080;2024-01-10T00:13:59;101863.22;;;-3.45;60.94
53868;BME280;41577;47.470;19.080;2024-01-10T00:14:11;101863.22;;;-3.45;60.69
53868;BME280;41577;47.470;19.080;2024-01-10T00:14:24;101864.06;;;-3.45;60.94
53868;BME280;41577;47.470;19.080;2024-01-10T00:14:36;101861.44;;;-3.45;60.79
53868;BME280;41577;47.470;19.080;2024-01-10T00:14:48;101859.72;;;-3.44;60.59
53868;BME280;41577;47.470;19.080;2024-01-10T00:15:00;101864.00;;;-3.43;61.05
53868;BME280;41577;47.470;19.080;2024-01-10T00:15:12;101871.84;;;-3.43;60.77
53868;BME280;41577;47.470;19.080;2024-01-10T00:15:24;101862.25;;;-3.43;61.03
53868;BME280;41577;47.470;19.080;2024-01-10T00:15:36;101863.09;;;-3.42;61.14
53868;BME280;41577;47.470;19.080;2024-01-10T00:15:48;101863.09;;;-3.42;60.85
53868;BME280;41577;47.470;19.080;2024-01-10T00:16:01;101863.09;;;-3.42;60.45
53868;BME280;41577;47.470;19.080;2024-01-10T00:16:13;101871.81;;;-3.42;60.82
53868;BME280;41577;47.470;19.080;2024-01-10T00:16:25;101866.56;;;-3.42;60.42
53868;BME280;41577;47.470;19.080;2024-01-10T00:16:37;101875.25;;;-3.41;60.34
53868;BME280;41577;47.470;19.080;2024-01-10T00:16:50;101868.25;;;-3.41;61.05
53868;BME280;41577;47.470;19.080;2024-01-10T00:17:02;101867.41;;;-3.41;61.06
53868;BME280;41577;47.470;19.080;2024-01-10T00:17:14;101865.66;;;-3.41;60.27
53868;BME280;41577;47.470;19.080;2024-01-10T00:17:27;101871.72;;;-3.40;61.00
53868;BME280;41577;47.470;19.080;2024-01-10T00:17:39;101869.97;;;-3.40;60.49
53868;BME280;41577;47.470;19.080;2024-01-10T00:17:52;101870.81;;;-3.39;60.18
53868;BME280;41577;47.470;19.080;2024-01-10T00:18:04;101871.72;;;-3.40;60.67
53868;BME280;41577;47.470;19.080;2024-01-10T00:18:16;101875.13;;;-3.38;60.26
53868;BME280;41577;47.470;19.080;2024-01-10T00:18:30;101864.69;;;-3.38;60.39
53868;BME280;41577;47.470;19.080;2024-01-10T00:18:43;101866.41;;;-3.37;61.10
53868;BME280;41577;47.470;19.080;2024-01-10T00:18:56;101868.13;;;-3.38;60.59
53868;BME280;41577;47.470;19.080;2024-01-10T00:19:09;101869.84;;;-3.37;60.70
53868;BME280;41577;47.470;19.080;2024-01-10T00:19:21;101868.09;;;-3.36;60.55
53868;BME280;41577;47.470;19.080;2024-01-10T00:19:33;101872.47;;;-3.37;60.75
53868;BME280;41577;47.470;19.080;2024-01-10T00:19:45;101875.03;;;-3.35;59.93
53868;BME280;41577;47.470;19.080;2024-01-10T00:19:57;101872.41;;;-3.35;60.84
53868;BME280;41577;47.470;19.080;2024-01-10T00:20:10;101875.88;;;-3.34;60.20
53868;BME280;41577;47.470;19.080;2024-01-10T00:20:22;101875.91;;;-3.36;60.35
53868;BME280;41577;47.470;19.080;2024-01-10T00:20:34;101875.88;;;-3.34;60.15
53868;BME280;41577;47.470;19.080;2024-01-10T00:20:46;101876.72;;;-3.34;60.28
53868;BME280;41577;47.470;19.080;2024-01-10T00:20:58;101879.31;;;-3.34;60.09
53868;BME280;41577;47.470;19.080;2024-01-10T00:21:11;101874.94;;;-3.33;59.89
53868;BME280;41577;47.470;19.080;2024-01-10T00:21:24;101878.34;;;-3.31;60.53
53868;BME280;41577;47.470;19.080;2024-01-10T00:21:36;101876.66;;;-3.32;60.93
53868;BME280;41577;47.470;19.080;2024-01-10T00:21:48;101868.75;;;-3.31;60.55
53868;BME280;41577;47.470;19.080;2024-01-10T00:22:00;101873.06;;;-3.30;61.10
53868;BME280;41577;47.470;19.080;2024-01-10T00:22:12;101869.63;;;-3.30;60.76
53868;BME280;41577;47.470;19.080;2024-01-10T00:22:25;101873.03;;;-3.28;60.03
53868;BME280;41577;47.470;19.080;2024-01-10T00:22:36;101875.63;;;-3.28;60.49
53868;BME280;41577;47.470;19.080;2024-01-10T00:22:49;101863.41;;;-3.28;60.79
53868;BME280;41577;47.470;19.080;2024-01-10T00:23:01;101877.31;;;-3.27;60.71
53868;BME280;41577;47.470;19.080;2024-01-10T00:23:13;101877.28;;;-3.26;61.55
53868;BME280;41577;47.470;19.080;2024-01-10T00:23:26;101878.97;;;-3.25;60.85
53868;BME280;41577;47.470;19.080;2024-01-10T00:23:38;101872.88;;;-3.25;60.89
53868;BME280;41577;47.470;19.080;2024-01-10T00:23:50;101872.88;;;-3.25;60.89
53868;BME280;41577;47.470;19.080;2024-01-10T00:24:03;101878.06;;;-3.24;60.56
53868;BME280;41577;47.470;19.080;2024-01-10T00:24:15;101873.75;;;-3.25;60.40
53868;BME280;41577;47.470;19.080;2024-01-10T00:24:27;101871.06;;;-3.23;60.79
53868;BME280;41577;47.470;19.080;2024-01-10T00:24:39;101878.91;;;-3.23;60.71
53868;BME280;41577;47.470;19.080;2024-01-10T00:24:51;101874.53;;;-3.23;61.50
53868;BME280;41577;47.470;19.080;2024-01-10T00:25:03;101877.13;;;-3.23;61.49
53868;BME280;41577;47.470;19.080;2024-01-10T00:25:15;101872.75;;;-3.22;60.74
53868;BME280;41577;47.470;19.080;2024-01-10T00:25:28;101873.59;;;-3.22;61.09
53868;BME280;41577;47.470;19.080;2024-01-10T00:25:40;101875.31;;;-3.21;60.68
53868;BME280;41577;47.470;19.080;2024-01-10T00:25:53;101872.75;;;-3.22;60.81
53868;BME280;41577;47.470;19.080;2024-01-10T00:26:05;101871.88;;;-3.21;61.16
53868;BME280;41577;47.470;19.080;2024-01-10T00:26:17;101867.47;;;-3.21;61.43
53868;BME280;41577;47.470;19.080;2024-01-10T00:26:30;101867.47;;;-3.21;61.17
53868;BME280;41577;47.470;19.080;2024-01-10T00:26:42;101863.94;;;-3.20;61.64
53868;BME280;41577;47.470;19.080;2024-01-10T00:26:54;101874.41;;;-3.20;61.11
53868;BME280;41577;47.470;19.080;2024-01-10T00:27:06;101868.31;;;-3.20;60.34
53868;BME280;41577;47.470;19.080;2024-01-10T00:27:19;101866.56;;;-3.20;61.07
53868;BME280;41577;47.470;19.080;2024-01-10T00:27:31;101868.28;;;-3.19;60.74
53868;BME280;41577;47.470;19.080;2024-01-10T00:27:44;101869.13;;;-3.18;61.24
53868;BME280;41577;47.470;19.080;2024-01-10T00:27:56;101867.34;;;-3.18;60.62
53868;BME280;41577;47.470;19.080;2024-01-10T00:28:09;101861.28;;;-3.18;60.82
53868;BME280;41577;47.470;19.080;2024-01-10T00:28:21;101867.34;;;-3.18;60.24
53868;BME280;41577;47.470;19.080;2024-01-10T00:28:34;101864.75;;;-3.18;60.23
53868;BME280;41577;47.470;19.080;2024-01-10T00:28:46;101869.13;;;-3.18;60.50
53868;BME280;41577;47.470;19.080;2024-01-10T00:28:59;101865.59;;;-3.17;60.08
53868;BME280;41577;47.470;19.080;2024-01-10T00:29:15;101867.34;;;-3.18;60.09
53868;BME280;41577;47.470;19.080;2024-01-10T00:29:28;101859.50;;;-3.18;59.67
53868;BME280;41577;47.470;19.080;2024-01-10T00:29:43;101866.50;;;-3.18;59.73
53868;BME280;41577;47.470;19.080;2024-01-10T00:29:55;101869.97;;;-3.18;59.50
53868;BME280;41577;47.470;19.080;2024-01-10T00:30:07;101871.72;;;-3.18;59.73
53868;BME280;41577;47.470;19.080;2024-01-10T00:30:20;101869.97;;;-3.18;59.32
53868;BME280;41577;47.470;19.080;2024-01-10T00:30:32;101863.91;;;-3.18;59.35
53868;BME280;41577;47.470;19.080;2024-01-10T00:30:45;101870.88;;;-3.19;59.13
53868;BME280;41577;47.470;19.080;2024-01-10T00:30:57;101868.28;;;-3.19;58.59
53868;BME280;41577;47.470;19.080;2024-01-10T00:31:09;101869.16;;;-3.20;59.08
53868;BME280;41577;47.470;19.080;2024-01-10T00:31:21;101861.34;;;-3.20;59.33
53868;BME280;41577;47.470;19.080;2024-01-10T00:31:34;101875.31;;;-3.21;59.04
53868;BME280;41577;47.470;19.080;2024-01-10T00:31:46;101869.16;;;-3.20;59.14
53868;BME280;41577;47.470;19.080;2024-01-10T00:31:59;101863.16;;;-3.22;58.94
53868;BME280;41577;47.470;19.080;2024-01-10T00:32:12;101871.00;;;-3.22;58.27
53868;BME280;41577;47.470;19.080;2024-01-10T00:32:28;101874.53;;;-3.23;58.66
53868;BME280;41577;47.470;19.080;2024-01-10T00:32:40;101869.31;;;-3.23;59.02
53868;BME280;41577;47.470;19.080;2024-01-10T00:32:53;101874.53;;;-3.23;58.44
53868;BME280;41577;47.470;19.080;2024-01-10T00:33:05;101872.84;;;-3.24;58.61
53868;BME280;41577;47.470;19.080;2024-01-10T00:33:17;101868.50;;;-3.25;58.79
53868;BME280;41577;47.470;19.080;2024-01-10T00:33:32;101872.88;;;-3.25;58.30
53868;BME280;41577;47.470;19.080;2024-01-10T00:33:44;101874.66;;;-3.26;57.89
53868;BME280;41577;47.470;19.080;2024-01-10T00:33:56;101875.56;;;-3.27;57.70
53868;BME280;41577;47.470;19.080;2024-01-10T00:34:09;101873.88;;;-3.28;57.69
53868;BME280;41577;47.470;19.080;2024-01-10T00:34:22;101870.41;;;-3.28;58.36
53868;BME280;41577;47.470;19.080;2024-01-10T00:34:34;101869.53;;;-3.29;57.89
53868;BME280;41577;47.470;19.080;2024-01-10T00:34:49;101876.59;;;-3.31;58.18
53868;BME280;41577;47.470;19.080;2024-01-10T00:35:02;101873.97;;;-3.31;58.26
53868;BME280;41577;47.470;19.080;2024-01-10T00:35:15;101877.50;;;-3.32;58.26
53868;BME280;41577;47.470;19.080;2024-01-10T00:35:27;101875.75;;;-3.31;57.96
53868;BME280;41577;47.470;19.080;2024-01-10T00:35:40;101872.34;;;-3.33;58.16
53868;BME280;41577;47.470;19.080;2024-01-10T00:35:52;101872.34;;;-3.33;58.38
53868;BME280;41577;47.470;19.080;2024-01-10T00:36:05;101868.03;;;-3.34;58.28
53868;BME280;41577;47.470;19.080;2024-01-10T00:36:17;101868.09;;;-3.36;58.82
53868;BME280;41577;47.470;19.080;2024-01-10T00:36:29;101875.88;;;-3.34;58.44
53868;BME280;41577;47.470;19.080;2024-01-10T00:36:42;101871.53;;;-3.36;58.28
53868;BME280;41577;47.470;19.080;2024-01-10T00:36:54;101871.53;;;-3.36;58.24
53868;BME280;41577;47.470;19.080;2024-01-10T00:37:06;101871.63;;;-3.37;57.96
53868;BME280;41577;47.470;19.080;2024-01-10T00:37:19;101867.25;;;-3.37;58.21
53868;BME280;41577;47.470;19.080;2024-01-10T00:37:31;101868.94;;;-3.36;58.55
53868;BME280;41577;47.470;19.080;2024-01-10T00:37:44;101873.31;;;-3.36;58.38
53868;BME280;41577;47.470;19.080;2024-01-10T00:37:56;101872.41;;;-3.35;58.81
53868;BME280;41577;47.470;19.080;2024-01-10T00:38:08;101867.25;;;-3.37;58.88
53868;BME280;41577;47.470;19.080;2024-01-10T00:38:21;101868.13;;;-3.38;58.94
53868;BME280;41577;47.470;19.080;2024-01-10T00:38:36;101864.69;;;-3.38;58.95
53868;BME280;41577;47.470;19.080;2024-01-10T00:38:49;101869.00;;;-3.37;59.24
53868;BME280;41577;47.470;19.080;2024-01-10T00:39:01;101866.44;;;-3.39;58.76
53868;BME280;41577;47.470;19.080;2024-01-10T00:39:13;101868.13;;;-3.38;58.74
53868;BME280;41577;47.470;19.080;2024-01-10T00:39:26;101869.06;;;-3.39;59.06
53868;BME280;41577;47.470;19.080;2024-01-10T00:39:38;101873.44;;;-3.39;58.88
53868;BME280;41577;47.470;19.080;2024-01-10T00:39:50;101862.91;;;-3.38;59.24
53868;BME280;41577;47.470;19.080;2024-01-10T00:40:03;101868.13;;;-3.38;58.87
53868;BME280;41577;47.470;19.080;2024-01-10T00:40:15;101863.84;;;-3.39;59.76
53868;BME280;41577;47.470;19.080;2024-01-10T00:40:28;101866.44;;;-3.39;59.43
53868;BME280;41577;47.470;19.080;2024-01-10T00:40:40;101866.44;;;-3.39;59.06
53868;BME280;41577;47.470;19.080;2024-01-10T00:40:56;101863.00;;;-3.39;59.68
53868;BME280;41577;47.470;19.080;2024-01-10T00:41:13;101866.50;;;-3.40;59.61
53868;BME280;41577;47.470;19.080;2024-01-10T00:41:29;101873.44;;;-3.39;60.08
53868;BME280;41577;47.470;19.080;2024-01-10T00:41:43;101868.22;;;-3.39;59.78
53868;BME280;41577;47.470;19.080;2024-01-10T00:41:56;101870.81;;;-3.39;60.59
53868;BME280;41577;47.470;19.080;2024-01-10T00:42:11;101873.44;;;-3.39;60.07
53868;BME280;41577;47.470;19.080;2024-01-10T00:42:25;101876.03;;;-3.39;59.94
53868;BME280;41577;47.470;19.080;2024-01-10T00:42:39;101869.97;;;-3.40;59.86
53868;BME280;41577;47.470;19.080;2024-01-10T00:42:52;101874.31;;;-3.40;60.69
53868;BME280;41577;47.470;19.080;2024-01-10T00:43:06;101868.25;;;-3.41;60.86
53868;BME280;41577;47.470;19.080;2024-01-10T00:43:24;101875.25;;;-3.41;61.41
53868;BME280;41577;47.470;19.080;2024-01-10T00:43:40;101875.25;;;-3.41;61.17
53868;BME280;41577;47.470;19.080;2024-01-10T00:43:52;101865.78;;;-3.44;60.31
53868;BME280;41577;47.470;19.080;2024-01-10T00:44:08;101877.03;;;-3.42;61.22
53868;BME280;41577;47.470;19.080;2024-01-10T00:44:22;101876.16;;;-3.42;61.75
53868;BME280;41577;47.470;19.080;2024-01-10T00:44:36;101875.31;;;-3.43;61.16
53868;BME280;41577;47.470;19.080;2024-01-10T00:44:53;101877.06;;;-3.43;60.79
53868;BME280;41577;47.470;19.080;2024-01-10T00:45:07;101873.63;;;-3.44;61.64
53868;BME280;41577;47.470;19.080;2024-01-10T00:45:20;101873.66;;;-3.45;61.46
53868;BME280;41577;47.470;19.080;2024-01-10T00:45:34;101873.66;;;-3.45;61.75
53868;BME280;41577;47.470;19.080;2024-01-10T00:45:48;101876.28;;;-3.45;61.38
53868;BME280;41577;47.470;19.080;2024-01-10T00:46:04;101878.88;;;-3.45;61.60
53868;BME280;41577;47.470;19.080;2024-01-10T00:46:16;101870.22;;;-3.46;62.32
53868;BME280;41577;47.470;19.080;2024-01-10T00:46:31;101874.59;;;-3.46;62.29
53868;BME280;41577;47.470;19.080;2024-01-10T00:46:44;101874.59;;;-3.46;62.36
53868;BME280;41577;47.470;19.080;2024-01-10T00:46:58;101876.41;;;-3.48;62.40
53868;BME280;41577;47.470;19.080;2024-01-10T00:47:14;101874.63;;;-3.48;62.02
53868;BME280;41577;47.470;19.080;2024-01-10T00:47:41;101875.56;;;-3.49;62.64
53868;BME280;41577;47.470;19.080;2024-01-10T00:48:00;101871.19;;;-3.48;62.96
53868;BME280;41577;47.470;19.080;2024-01-10T00:48:15;101872.03;;;-3.48;62.48
53868;BME280;41577;47.470;19.080;2024-01-10T00:48:35;101875.56;;;-3.49;63.25
53868;BME280;41577;47.470;19.080;2024-01-10T00:48:49;101874.69;;;-3.49;62.65
53868;BME280;41577;47.470;19.080;2024-01-10T00:49:02;101872.94;;;-3.49;63.36
53868;BME280;41577;47.470;19.080;2024-01-10T00:49:15;101873.84;;;-3.50;63.50
53868;BME280;41577;47.470;19.080;2024-01-10T00:49:27;101872.06;;;-3.49;62.85
53868;BME280;41577;47.470;19.080;2024-01-10T00:49:41;101870.38;;;-3.50;63.86
53868;BME280;41577;47.470;19.080;2024-01-10T00:49:55;101867.78;;;-3.50;64.04
53868;BME280;41577;47.470;19.080;2024-01-10T00:50:08;101873.84;;;-3.50;63.30
53868;BME280;41577;47.470;19.080;2024-01-10T00:50:21;101871.22;;;-3.50;63.63
53868;BME280;41577;47.470;19.080;2024-01-10T00:50:35;101869.53;;;-3.51;64.44
53868;BME280;41577;47.470;19.080;2024-01-10T00:50:47;101873.00;;;-3.50;63.43
53868;BME280;41577;47.470;19.080;2024-01-10T00:51:01;101873.00;;;-3.50;64.36
53868;BME280;41577;47.470;19.080;2024-01-10T00:51:16;101866.06;;;-3.51;64.14
53868;BME280;41577;47.470;19.080;2024-01-10T00:51:31;101874.75;;;-3.51;63.98
53868;BME280;41577;47.470;19.080;2024-01-10T00:51:44;101866.94;;;-3.51;64.04
53868;BME280;41577;47.470;19.080;2024-01-10T00:51:59;101874.81;;;-3.52;63.99
53868;BME280;41577;47.470;19.080;2024-01-10T00:52:13;101871.28;;;-3.51;64.58
53868;BME280;41577;47.470;19.080;2024-01-10T00:52:27;101875.66;;;-3.52;64.49
53868;BME280;41577;47.470;19.080;2024-01-10T00:52:39;101868.66;;;-3.51;65.20
53868;BME280;41577;47.470;19.080;2024-01-10T00:52:54;101877.44;;;-3.52;65.50
53868;BME280;41577;47.470;19.080;2024-01-10T00:53:08;101868.75;;;-3.53;65.59
53868;BME280;41577;47.470;19.080;2024-01-10T00:53:21;101871.34;;;-3.53;65.09
53868;BME280;41577;47.470;19.080;2024-01-10T00:53:34;101871.34;;;-3.53;64.91
53868;BME280;41577;47.470;19.080;2024-01-10T00:53:47;101868.78;;;-3.54;65.40
53868;BME280;41577;47.470;19.080;2024-01-10T00:53:59;101869.63;;;-3.54;65.74
53868;BME280;41577;47.470;19.080;2024-01-10T00:54:14;101871.41;;;-3.54;65.55
53868;BME280;41577;47.470;19.080;2024-01-10T00:54:28;101877.47;;;-3.54;65.61
53868;BME280;41577;47.470;19.080;2024-01-10T00:54:41;101877.56;;;-3.55;65.27
53868;BME280;41577;47.470;19.080;2024-01-10T00:54:53;101875.78;;;-3.55;65.25
53868;BME280;41577;47.470;19.080;2024-01-10T00:55:07;101874.16;;;-3.58;66.29
53868;BME280;41577;47.470;19.080;2024-01-10T00:55:19;101876.69;;;-3.56;66.05
53868;BME280;41577;47.470;19.080;2024-01-10T00:55:32;101874.06;;;-3.56;65.42
53868;BME280;41577;47.470;19.080;2024-01-10T00:55:46;101873.22;;;-3.57;65.49
53868;BME280;41577;47.470;19.080;2024-01-10T00:55:59;101876.69;;;-3.56;65.81
53868;BME280;41577;47.470;19.080;2024-01-10T00:56:12;101875.00;;;-3.57;65.50
53868;BME280;41577;47.470;19.080;2024-01-10T00:56:25;101876.69;;;-3.56;66.28
53868;BME280;41577;47.470;19.080;2024-01-10T00:56:38;101871.47;;;-3.56;65.56
53868;BME280;41577;47.470;19.080;2024-01-10T00:56:51;101878.44;;;-3.57;65.80
53868;BME280;41577;47.470;19.080;2024-01-10T00:57:04;101872.44;;;-3.59;65.91
53868;BME280;41577;47.470;19.080;2024-01-10T00:57:17;101877.59;;;-3.57;65.78
53868;BME280;41577;47.470;19.080;2024-01-10T00:57:29;101874.16;;;-3.58;65.68
53868;BME280;41577;47.470;19.080;2024-01-10T00:57:44;101869.81;;;-3.59;66.46
53868;BME280;41577;47.470;19.080;2024-01-10T00:57:57;101874.19;;;-3.59;66.30
53868;BME280;41577;47.470;19.080;2024-01-10T00:58:10;101874.16;;;-3.58;66.21
53868;BME280;41577;47.470;19.080;2024-01-10T00:58:23;101876.75;;;-3.58;66.22
53868;BME280;41577;47.470;19.080;2024-01-10T00:58:36;101868.06;;;-3.58;65.84
53868;BME280;41577;47.470;19.080;2024-01-10T00:58:48;101874.19;;;-3.59;66.86
53868;BME280;41577;47.470;19.080;2024-01-10T00:59:02;101876.81;;;-3.59;66.05
53868;BME280;41577;47.470;19.080;2024-01-10T00:59:15;101872.44;;;-3.59;66.76
53868;BME280;41577;47.470;19.080;2024-01-10T00:59:28;101875.03;;;-3.59;65.99
53868;BME280;41577;47.470;19.080;2024-01-10T00:59:40;101863.81;;;-3.61;66.12
53868;BME280;41577;47.470;19.080;2024-01-10T00:59:53;101869.91;;;-3.60;65.80
53868;BME280;41577;47.470;19.080;2024-01-10T01:00:06;101872.50;;;-3.60;65.98
53868;BME280;41577;47.470;19.080;2024-01-10T01:00:19;101869.91;;;-3.60;66.80
53868;BME280;41577;47.470;19.080;2024-01-10T01:00:32;101870.78;;;-3.61;65.94
53868;BME280;41577;47.470;19.080;2024-01-10T01:00:46;101867.28;;;-3.60;66.01
53868;BME280;41577;47.470;19.080;2024-01-10T01:00:58;101871.63;;;-3.61;65.80
53868;BME280;41577;47.470;19.080;2024-01-10T01:01:11;101874.25;;;-3.61;66.41
53868;BME280;41577;47.470;19.080;2024-01-10T01:01:24;101868.19;;;-3.61;66.47
53868;BME280;41577;47.470;19.080;2024-01-10T01:01:37;101873.41;;;-3.61;66.01
53868;BME280;41577;47.470;19.080;2024-01-10T01:01:50;101876.84;;;-3.61;66.79
53868;BME280;41577;47.470;19.080;2024-01-10T01:02:03;101870.78;;;-3.61;67.01
53868;BME280;41577;47.470;19.080;2024-01-10T01:02:16;101872.56;;;-3.62;66.08
53868;BME280;41577;47.470;19.080;2024-01-10T01:02:29;101871.63;;;-3.61;66.31
53868;BME280;41577;47.470;19.080;2024-01-10T01:02:41;101872.56;;;-3.62;65.98
53868;BME280;41577;47.470;19.080;2024-01-10T01:02:55;101871.63;;;-3.61;66.33
53868;BME280;41577;47.470;19.080;2024-01-10T01:03:07;101871.63;;;-3.61;66.79
53868;BME280;41577;47.470;19.080;2024-01-10T01:03:21;101874.25;;;-3.61;66.77
53868;BME280;41577;47.470;19.080;2024-01-10T01:03:35;101870.78;;;-3.61;66.76
53868;BME280;41577;47.470;19.080;2024-01-10T01:03:48;101877.78;;;-3.62;66.58
53868;BME280;41577;47.470;19.080;2024-01-10T01:04:01;101877.72;;;-3.60;66.22
53868;BME280;41577;47.470;19.080;2024-01-10T01:04:14;101876.84;;;-3.61;66.53
53868;BME280;41577;47.470;19.080;2024-01-10T01:04:27;101877.72;;;-3.60;66.54
53868;BME280;41577;47.470;19.080;2024-01-10T01:04:40;101875.13;;;-3.60;66.80
53868;BME280;41577;47.470;19.080;2024-01-10T01:04:53;101874.25;;;-3.61;66.10
53868;BME280;41577;47.470;19.080;2024-01-10T01:05:06;101876.00;;;-3.61;66.91
53868;BME280;41577;47.470;19.080;2024-01-10T01:05:19;101876.84;;;-3.61;66.37
53868;BME280;41577;47.470;19.080;2024-01-10T01:05:33;101876.00;;;-3.61;66.55
53868;BME280;41577;47.470;19.080;2024-01-10T01:05:46;101876.84;;;-3.61;66.67
53868;BME280;41577;47.470;19.080;2024-01-10T01:05:59;101872.50;;;-3.60;65.95
53868;BME280;41577;47.470;19.080;2024-01-10T01:06:12;101872.50;;;-3.60;66.02
53868;BME280;41577;47.470;19.080;2024-01-10T01:06:25;101869.91;;;-3.60;66.31
53868;BME280;41577;47.470;19.080;2024-01-10T01:06:38;101873.34;;;-3.60;66.47
53868;BME280;41577;47.470;19.080;2024-01-10T01:06:51;101864.69;;;-3.60;66.64